sensor_id;sensor_type;location;lat;lon;timestamp;temperature;humidity
22130;DHT22;11231;50.746;4.272;2023-07-08T00:00:49;20.40;99.90
22130;DHT22;11231;50.746;4.272;2023-07-08T00:03:16;20.40;99.90
22130;DHT22;11231;50.746;4.272;2023-07-08T00:05:41;20.20;99.90
22130;DHT22;11231;50.746;4.272;2023-07-08T00:08:17;20.20;99.90
22130;DHT22;11231;50.746;4.272;2023-07-08T00:10:44;20.00;99.90
22130;DHT22;11231;50.746;4.272;2023-07-08T00:13:10;19.80;99.90
22130;DHT22;11231;50.746;4.272;2023-07-08T00:15:37;19.70;99.90
22130;DHT22;11231;50.746;4.272;2023-07-08T00:18:16;19.70;99.90
22130;DHT22;11231;50.746;4.272;2023-07-08T00:20:49;19.60;99.90
22130;DHT22;11231;50.746;4.272;2023-07-08T00:23:15;19.60;99.90
22130;DHT22;11231;50.746;4.272;2023-07-08T00:25:41;19.50;99.90
22130;DHT22;11231;50.746;4.272;2023-07-08T00:28:17;19.40;99.90
22130;DHT22;11231;50.746;4.272;2023-07-08T00:30:47;19.30;99.90
22130;DHT22;11231;50.746;4.272;2023-07-08T00:33:13;19.30;99.90
22130;DHT22;11231;50.746;4.272;2023-07-08T00:35:43;19.30;99.90
22130;DHT22;11231;50.746;4.272;2023-07-08T00:38:25;19.30;99.90
22130;DHT22;11231;50.746;4.272;2023-07-08T00:41:12;19.20;99.90
22130;DHT22;11231;50.746;4.272;2023-07-08T00:51:25;19.30;99.90
22130;DHT22;11231;50.746;4.272;2023-07-08T00:53:50;19.40;99.90
22130;DHT22;11231;50.746;4.272;2023-07-08T00:56:20;19.50;99.90
22130;DHT22;11231;50.746;4.272;2023-07-08T00:58:59;19.70;99.90
22130;DHT22;11231;50.746;4.272;2023-07-08T01:01:28;19.90;99.90
22130;DHT22;11231;50.746;4.272;2023-07-08T01:03:59;20.00;99.90
22130;DHT22;11231;50.746;4.272;2023-07-08T01:06:28;19.90;99.90
22130;DHT22;11231;50.746;4.272;2023-07-08T01:08:58;19.90;99.90
22130;DHT22;11231;50.746;4.272;2023-07-08T01:11:24;19.80;99.90
22130;DHT22;11231;50.746;4.272;2023-07-08T01:13:51;19.70;99.90
22130;DHT22;11231;50.746;4.272;2023-07-08T01:16:17;19.70;99.90
22130;DHT22;11231;50.746;4.272;2023-07-08T01:18:43;19.70;99.90
22130;DHT22;11231;50.746;4.272;2023-07-08T01:21:36;19.70;99.90
22130;DHT22;11231;50.746;4.272;2023-07-08T01:24:09;19.70;99.90
22130;DHT22;11231;50.746;4.272;2023-07-08T01:26:39;19.70;99.90
22130;DHT22;11231;50.746;4.272;2023-07-08T01:29:05;19.60;99.90
22130;DHT22;11231;50.746;4.272;2023-07-08T01:31:33;19.60;99.90
22130;DHT22;11231;50.746;4.272;2023-07-08T01:33:59;19.50;99.90
22130;DHT22;11231;50.746;4.272;2023-07-08T01:36:26;19.50;99.90
22130;DHT22;11231;50.746;4.272;2023-07-08T01:38:55;19.50;99.90
22130;DHT22;11231;50.746;4.272;2023-07-08T01:41:21;19.50;99.90
22130;DHT22;11231;50.746;4.272;2023-07-08T01:43:46;19.40;99.90
22130;DHT22;11231;50.746;4.272;2023-07-08T01:46:19;19.40;99.90
22130;DHT22;11231;50.746;4.272;2023-07-08T01:48:57;19.50;99.90
22130;DHT22;11231;50.746;4.272;2023-07-08T01:51:24;19.40;99.90
22130;DHT22;11231;50.746;4.272;2023-07-08T01:53:51;19.40;99.90
22130;DHT22;11231;50.746;4.272;2023-07-08T01:56:16;19.40;99.90
22130;DHT22;11231;50.746;4.272;2023-07-08T01:58:42;19.30;99.90
22130;DHT22;11231;50.746;4.272;2023-07-08T02:01:08;19.30;99.90
22130;DHT22;11231;50.746;4.272;2023-07-08T02:03:35;19.30;99.90
22130;DHT22;11231;50.746;4.272;2023-07-08T02:06:01;19.30;99.90
22130;DHT22;11231;50.746;4.272;2023-07-08T02:08:27;19.30;99.90
22130;DHT22;11231;50.746;4.272;2023-07-08T02:10:56;19.30;99.90
22130;DHT22;11231;50.746;4.272;2023-07-08T02:13:22;19.40;99.90
22130;DHT22;11231;50.746;4.272;2023-07-08T02:15:48;19.30;99.90
22130;DHT22;11231;50.746;4.272;2023-07-08T02:18:14;19.30;99.90
22130;DHT22;11231;50.746;4.272;2023-07-08T02:20:43;19.20;99.90
22130;DHT22;11231;50.746;4.272;2023-07-08T02:23:08;19.20;99.90
22130;DHT22;11231;50.746;4.272;2023-07-08T02:25:34;19.10;99.90
22130;DHT22;11231;50.746;4.272;2023-07-08T02:28:00;19.10;99.90
22130;DHT22;11231;50.746;4.272;2023-07-08T02:30:26;19.10;99.90
22130;DHT22;11231;50.746;4.272;2023-07-08T02:32:52;19.10;99.90
22130;DHT22;11231;50.746;4.272;2023-07-08T02:35:29;18.90;99.90
22130;DHT22;11231;50.746;4.272;2023-07-08T02:37:55;18.80;99.90
22130;DHT22;11231;50.746;4.272;2023-07-08T02:40:22;18.90;99.90
22130;DHT22;11231;50.746;4.272;2023-07-08T02:42:48;18.90;99.90
22130;DHT22;11231;50.746;4.272;2023-07-08T02:45:15;18.90;99.90
22130;DHT22;11231;50.746;4.272;2023-07-08T02:47:41;18.90;99.90
22130;DHT22;11231;50.746;4.272;2023-07-08T02:50:09;19.00;99.90
22130;DHT22;11231;50.746;4.272;2023-07-08T02:52:35;19.00;99.90
22130;DHT22;11231;50.746;4.272;2023-07-08T02:55:02;18.90;99.90
22130;DHT22;11231;50.746;4.272;2023-07-08T02:57:27;18.80;99.90
22130;DHT22;11231;50.746;4.272;2023-07-08T02:59:53;18.90;99.90
22130;DHT22;11231;50.746;4.272;2023-07-08T03:02:19;18.90;99.90
22130;DHT22;11231;50.746;4.272;2023-07-08T03:04:44;19.00;99.90
22130;DHT22;11231;50.746;4.272;2023-07-08T03:07:11;19.00;99.90
22130;DHT22;11231;50.746;4.272;2023-07-08T03:09:38;19.00;99.90
22130;DHT22;11231;50.746;4.272;2023-07-08T03:12:09;18.90;99.90
22130;DHT22;11231;50.746;4.272;2023-07-08T03:14:35;18.80;99.90
22130;DHT22;11231;50.746;4.272;2023-07-08T03:17:02;18.70;99.90
22130;DHT22;11231;50.746;4.272;2023-07-08T03:19:28;18.80;99.90
22130;DHT22;11231;50.746;4.272;2023-07-08T03:21:54;18.70;99.90
22130;DHT22;11231;50.746;4.272;2023-07-08T03:24:20;18.80;99.90
22130;DHT22;11231;50.746;4.272;2023-07-08T03:26:47;18.80;99.90
22130;DHT22;11231;50.746;4.272;2023-07-08T03:29:18;18.80;99.90
22130;DHT22;11231;50.746;4.272;2023-07-08T03:31:46;18.90;99.90
22130;DHT22;11231;50.746;4.272;2023-07-08T03:34:12;18.90;99.90
22130;DHT22;11231;50.746;4.272;2023-07-08T03:36:50;18.80;99.90
22130;DHT22;11231;50.746;4.272;2023-07-08T03:39:18;18.80;99.90
22130;DHT22;11231;50.746;4.272;2023-07-08T03:41:45;18.80;99.90
22130;DHT22;11231;50.746;4.272;2023-07-08T03:44:11;18.80;99.90
22130;DHT22;11231;50.746;4.272;2023-07-08T03:46:38;18.80;99.90
22130;DHT22;11231;50.746;4.272;2023-07-08T03:49:05;18.80;99.90
22130;DHT22;11231;50.746;4.272;2023-07-08T03:51:37;18.70;99.90
22130;DHT22;11231;50.746;4.272;2023-07-08T03:54:04;18.70;99.90
22130;DHT22;11231;50.746;4.272;2023-07-08T03:56:33;18.80;99.90
22130;DHT22;11231;50.746;4.272;2023-07-08T03:59:00;18.80;99.90
22130;DHT22;11231;50.746;4.272;2023-07-08T04:01:26;18.80;99.90
22130;DHT22;11231;50.746;4.272;2023-07-08T04:03:55;18.70;99.90
22130;DHT22;11231;50.746;4.272;2023-07-08T04:06:22;18.70;99.90
22130;DHT22;11231;50.746;4.272;2023-07-08T04:08:48;18.80;99.90
22130;DHT22;11231;50.746;4.272;2023-07-08T04:11:17;18.80;99.90
22130;DHT22;11231;50.746;4.272;2023-07-08T04:13:43;18.70;99.90
22130;DHT22;11231;50.746;4.272;2023-07-08T04:16:22;18.70;99.90
22130;DHT22;11231;50.746;4.272;2023-07-08T04:18:48;18.70;99.90
22130;DHT22;11231;50.746;4.272;2023-07-08T04:21:17;18.60;99.90
22130;DHT22;11231;50.746;4.272;2023-07-08T04:23:43;18.50;99.90
22130;DHT22;11231;50.746;4.272;2023-07-08T04:26:09;18.60;99.90
22130;DHT22;11231;50.746;4.272;2023-07-08T04:28:35;18.70;99.90
22130;DHT22;11231;50.746;4.272;2023-07-08T04:31:01;18.80;99.90
22130;DHT22;11231;50.746;4.272;2023-07-08T04:33:27;18.80;99.90
22130;DHT22;11231;50.746;4.272;2023-07-08T04:35:53;19.00;99.90
22130;DHT22;11231;50.746;4.272;2023-07-08T04:38:25;19.00;99.90
22130;DHT22;11231;50.746;4.272;2023-07-08T04:40:52;19.30;99.90
22130;DHT22;11231;50.746;4.272;2023-07-08T04:43:19;19.80;99.90
22130;DHT22;11231;50.746;4.272;2023-07-08T04:45:47;20.60;99.90
22130;DHT22;11231;50.746;4.272;2023-07-08T04:48:16;21.00;99.90
22130;DHT22;11231;50.746;4.272;2023-07-08T04:50:48;21.50;99.90
22130;DHT22;11231;50.746;4.272;2023-07-08T04:53:15;22.10;99.90
22130;DHT22;11231;50.746;4.272;2023-07-08T04:55:50;22.70;99.90
22130;DHT22;11231;50.746;4.272;2023-07-08T04:58:16;23.50;99.90
22130;DHT22;11231;50.746;4.272;2023-07-08T05:00:42;24.30;99.90
22130;DHT22;11231;50.746;4.272;2023-07-08T05:03:08;25.10;99.90
22130;DHT22;11231;50.746;4.272;2023-07-08T05:05:33;25.70;99.90
22130;DHT22;11231;50.746;4.272;2023-07-08T05:07:59;25.70;99.90
22130;DHT22;11231;50.746;4.272;2023-07-08T05:10:26;25.90;99.90
22130;DHT22;11231;50.746;4.272;2023-07-08T05:12:51;26.50;99.90
22130;DHT22;11231;50.746;4.272;2023-07-08T05:15:17;27.60;99.90
22130;DHT22;11231;50.746;4.272;2023-07-08T05:17:43;28.50;99.90
22130;DHT22;11231;50.746;4.272;2023-07-08T05:20:12;29.10;99.90
22130;DHT22;11231;50.746;4.272;2023-07-08T05:22:38;29.60;99.90
22130;DHT22;11231;50.746;4.272;2023-07-08T05:25:04;29.60;99.90
22130;DHT22;11231;50.746;4.272;2023-07-08T05:27:31;29.70;99.90
22130;DHT22;11231;50.746;4.272;2023-07-08T05:29:59;30.20;99.90
22130;DHT22;11231;50.746;4.272;2023-07-08T05:32:25;31.00;99.90
22130;DHT22;11231;50.746;4.272;2023-07-08T05:34:52;31.60;99.90
22130;DHT22;11231;50.746;4.272;2023-07-08T05:37:18;31.90;99.90
22130;DHT22;11231;50.746;4.272;2023-07-08T05:39:49;32.30;99.90
22130;DHT22;11231;50.746;4.272;2023-07-08T05:42:15;32.60;99.90
22130;DHT22;11231;50.746;4.272;2023-07-08T05:44:40;32.80;99.90
22130;DHT22;11231;50.746;4.272;2023-07-08T05:47:06;33.20;99.90
22130;DHT22;11231;50.746;4.272;2023-07-08T05:49:32;33.70;99.90
22130;DHT22;11231;50.746;4.272;2023-07-08T05:51:58;33.80;99.90
22130;DHT22;11231;50.746;4.272;2023-07-08T05:54:24;34.40;99.10
22130;DHT22;11231;50.746;4.272;2023-07-08T05:56:50;34.90;96.60
22130;DHT22;11231;50.746;4.272;2023-07-08T05:59:15;35.30;94.90
22130;DHT22;11231;50.746;4.272;2023-07-08T06:01:41;35.60;94.10
22130;DHT22;11231;50.746;4.272;2023-07-08T06:04:06;35.60;93.30
22130;DHT22;11231;50.746;4.272;2023-07-08T06:06:32;35.60;92.50
22130;DHT22;11231;50.746;4.272;2023-07-08T06:08:58;35.60;91.40
22130;DHT22;11231;50.746;4.272;2023-07-08T06:11:25;36.00;91.20
22130;DHT22;11231;50.746;4.272;2023-07-08T06:13:51;36.50;88.40
22130;DHT22;11231;50.746;4.272;2023-07-08T06:16:16;35.90;88.10
22130;DHT22;11231;50.746;4.272;2023-07-08T06:18:42;36.10;89.00
22130;DHT22;11231;50.746;4.272;2023-07-08T06:21:08;36.60;87.30
22130;DHT22;11231;50.746;4.272;2023-07-08T06:23:33;36.70;87.60
22130;DHT22;11231;50.746;4.272;2023-07-08T06:25:59;36.30;87.80
22130;DHT22;11231;50.746;4.272;2023-07-08T06:28:25;36.00;89.90
22130;DHT22;11231;50.746;4.272;2023-07-08T06:30:50;36.20;87.50
22130;DHT22;11231;50.746;4.272;2023-07-08T06:33:16;36.60;87.40
22130;DHT22;11231;50.746;4.272;2023-07-08T06:35:43;36.90;82.90
22130;DHT22;11231;50.746;4.272;2023-07-08T06:38:09;37.00;82.40
22130;DHT22;11231;50.746;4.272;2023-07-08T06:40:34;36.40;81.50
22130;DHT22;11231;50.746;4.272;2023-07-08T06:43:02;36.20;82.90
22130;DHT22;11231;50.746;4.272;2023-07-08T06:45:48;35.60;82.70
22130;DHT22;11231;50.746;4.272;2023-07-08T06:48:14;35.40;81.90
22130;DHT22;11231;50.746;4.272;2023-07-08T06:50:42;35.70;81.30
22130;DHT22;11231;50.746;4.272;2023-07-08T06:53:08;35.50;82.20
22130;DHT22;11231;50.746;4.272;2023-07-08T06:55:34;35.90;84.40
22130;DHT22;11231;50.746;4.272;2023-07-08T06:58:00;35.80;82.00
22130;DHT22;11231;50.746;4.272;2023-07-08T07:00:26;36.10;81.30
22130;DHT22;11231;50.746;4.272;2023-07-08T07:02:52;35.90;80.20
22130;DHT22;11231;50.746;4.272;2023-07-08T07:05:17;35.90;80.50
22130;DHT22;11231;50.746;4.272;2023-07-08T07:07:44;36.50;80.40
22130;DHT22;11231;50.746;4.272;2023-07-08T07:10:10;36.90;78.30
22130;DHT22;11231;50.746;4.272;2023-07-08T07:12:36;37.90;75.50
22130;DHT22;11231;50.746;4.272;2023-07-08T07:15:02;38.70;74.20
22130;DHT22;11231;50.746;4.272;2023-07-08T07:17:30;39.70;73.30
22130;DHT22;11231;50.746;4.272;2023-07-08T07:19:56;40.00;69.00
22130;DHT22;11231;50.746;4.272;2023-07-08T07:22:22;39.80;69.10
22130;DHT22;11231;50.746;4.272;2023-07-08T07:24:48;40.30;70.00
22130;DHT22;11231;50.746;4.272;2023-07-08T07:27:14;40.90;68.80
22130;DHT22;11231;50.746;4.272;2023-07-08T07:29:48;41.30;67.80
22130;DHT22;11231;50.746;4.272;2023-07-08T07:32:15;41.80;65.40
22130;DHT22;11231;50.746;4.272;2023-07-08T07:34:41;42.90;62.90
22130;DHT22;11231;50.746;4.272;2023-07-08T07:37:12;42.90;58.90
22130;DHT22;11231;50.746;4.272;2023-07-08T07:39:39;41.80;58.40
22130;DHT22;11231;50.746;4.272;2023-07-08T07:42:05;42.20;58.60
22130;DHT22;11231;50.746;4.272;2023-07-08T07:44:31;42.80;57.50
22130;DHT22;11231;50.746;4.272;2023-07-08T07:46:57;42.90;57.20
22130;DHT22;11231;50.746;4.272;2023-07-08T07:49:22;43.60;55.70
22130;DHT22;11231;50.746;4.272;2023-07-08T07:51:48;43.10;54.70
22130;DHT22;11231;50.746;4.272;2023-07-08T07:54:14;42.60;54.90
22130;DHT22;11231;50.746;4.272;2023-07-08T07:56:40;41.80;54.90
22130;DHT22;11231;50.746;4.272;2023-07-08T07:59:06;41.30;56.10
22130;DHT22;11231;50.746;4.272;2023-07-08T08:01:32;42.70;54.80
22130;DHT22;11231;50.746;4.272;2023-07-08T08:03:57;43.00;53.50
22130;DHT22;11231;50.746;4.272;2023-07-08T08:06:23;43.20;52.80
22130;DHT22;11231;50.746;4.272;2023-07-08T08:08:49;43.20;52.90
22130;DHT22;11231;50.746;4.272;2023-07-08T08:11:15;42.70;52.30
22130;DHT22;11231;50.746;4.272;2023-07-08T08:13:42;42.00;52.60
22130;DHT22;11231;50.746;4.272;2023-07-08T08:16:07;43.00;53.50
22130;DHT22;11231;50.746;4.272;2023-07-08T08:18:33;44.80;50.90
22130;DHT22;11231;50.746;4.272;2023-07-08T08:20:59;46.00;48.60
22130;DHT22;11231;50.746;4.272;2023-07-08T08:23:25;45.40;47.70
22130;DHT22;11231;50.746;4.272;2023-07-08T08:25:51;45.00;47.30
22130;DHT22;11231;50.746;4.272;2023-07-08T08:28:17;44.30;47.50
22130;DHT22;11231;50.746;4.272;2023-07-08T08:30:47;44.20;47.40
22130;DHT22;11231;50.746;4.272;2023-07-08T08:33:13;45.20;47.40
22130;DHT22;11231;50.746;4.272;2023-07-08T08:35:39;46.00;47.50
22130;DHT22;11231;50.746;4.272;2023-07-08T08:38:04;46.80;46.00
22130;DHT22;11231;50.746;4.272;2023-07-08T08:40:31;47.80;46.00
22130;DHT22;11231;50.746;4.272;2023-07-08T08:43:03;48.40;45.40
22130;DHT22;11231;50.746;4.272;2023-07-08T08:45:36;48.50;44.50
22130;DHT22;11231;50.746;4.272;2023-07-08T08:48:08;49.20;43.40
22130;DHT22;11231;50.746;4.272;2023-07-08T08:50:47;50.10;43.50
22130;DHT22;11231;50.746;4.272;2023-07-08T08:53:16;49.90;42.60
22130;DHT22;11231;50.746;4.272;2023-07-08T08:55:43;50.80;42.40
22130;DHT22;11231;50.746;4.272;2023-07-08T09:06:24;50.70;40.70
22130;DHT22;11231;50.746;4.272;2023-07-08T09:08:52;51.00;40.50
22130;DHT22;11231;50.746;4.272;2023-07-08T09:11:39;51.20;40.40
22130;DHT22;11231;50.746;4.272;2023-07-08T09:14:36;51.60;39.40
22130;DHT22;11231;50.746;4.272;2023-07-08T09:20:03;51.10;39.20
22130;DHT22;11231;50.746;4.272;2023-07-08T09:25:25;49.50;40.00
22130;DHT22;11231;50.746;4.272;2023-07-08T09:27:54;49.20;39.50
22130;DHT22;11231;50.746;4.272;2023-07-08T09:30:22;48.50;40.60
22130;DHT22;11231;50.746;4.272;2023-07-08T09:32:49;47.90;40.60
22130;DHT22;11231;50.746;4.272;2023-07-08T09:37:49;47.70;40.40
22130;DHT22;11231;50.746;4.272;2023-07-08T09:40:23;47.20;39.50
22130;DHT22;11231;50.746;4.272;2023-07-08T09:43:02;47.50;39.30
22130;DHT22;11231;50.746;4.272;2023-07-08T09:45:29;47.80;39.40
22130;DHT22;11231;50.746;4.272;2023-07-08T09:48:17;49.00;39.90
22130;DHT22;11231;50.746;4.272;2023-07-08T09:50:48;47.70;39.60
22130;DHT22;11231;50.746;4.272;2023-07-08T09:53:14;47.90;40.90
22130;DHT22;11231;50.746;4.272;2023-07-08T09:55:40;47.80;41.10
22130;DHT22;11231;50.746;4.272;2023-07-08T09:58:11;48.60;41.00
22130;DHT22;11231;50.746;4.272;2023-07-08T10:00:40;47.90;40.40
22130;DHT22;11231;50.746;4.272;2023-07-08T10:03:20;48.90;41.00
22130;DHT22;11231;50.746;4.272;2023-07-08T10:05:48;48.80;40.10
22130;DHT22;11231;50.746;4.272;2023-07-08T10:10:42;49.70;40.50
22130;DHT22;11231;50.746;4.272;2023-07-08T10:13:39;49.40;39.70
22130;DHT22;11231;50.746;4.272;2023-07-08T10:16:29;48.90;39.20
22130;DHT22;11231;50.746;4.272;2023-07-08T10:18:57;49.40;40.00
22130;DHT22;11231;50.746;4.272;2023-07-08T10:30:03;50.30;40.20
22130;DHT22;11231;50.746;4.272;2023-07-08T10:32:50;49.30;39.40
22130;DHT22;11231;50.746;4.272;2023-07-08T10:35:29;50.10;41.40
22130;DHT22;11231;50.746;4.272;2023-07-08T10:46:18;48.20;39.40
22130;DHT22;11231;50.746;4.272;2023-07-08T10:52:36;48.90;41.10
22130;DHT22;11231;50.746;4.272;2023-07-08T11:06:11;46.90;40.50
22130;DHT22;11231;50.746;4.272;2023-07-08T11:08:45;47.30;40.00
22130;DHT22;11231;50.746;4.272;2023-07-08T11:13:45;48.20;39.60
22130;DHT22;11231;50.746;4.272;2023-07-08T11:16:29;48.10;39.90
22130;DHT22;11231;50.746;4.272;2023-07-08T11:19:04;47.80;40.40
22130;DHT22;11231;50.746;4.272;2023-07-08T11:27:11;47.80;41.10
22130;DHT22;11231;50.746;4.272;2023-07-08T11:30:06;47.80;40.00
22130;DHT22;11231;50.746;4.272;2023-07-08T11:32:39;47.80;41.70
22130;DHT22;11231;50.746;4.272;2023-07-08T11:35:18;47.10;40.10
22130;DHT22;11231;50.746;4.272;2023-07-08T11:37:45;46.20;42.00
22130;DHT22;11231;50.746;4.272;2023-07-08T11:42:49;45.80;41.90
22130;DHT22;11231;50.746;4.272;2023-07-08T11:45:33;44.70;42.70
22130;DHT22;11231;50.746;4.272;2023-07-08T11:50:42;43.10;44.10
22130;DHT22;11231;50.746;4.272;2023-07-08T11:53:09;42.30;45.70
22130;DHT22;11231;50.746;4.272;2023-07-08T12:00:59;43.90;46.10
22130;DHT22;11231;50.746;4.272;2023-07-08T12:03:37;43.40;45.40
22130;DHT22;11231;50.746;4.272;2023-07-08T12:08:58;44.60;48.40
22130;DHT22;11231;50.746;4.272;2023-07-08T12:11:34;44.50;47.10
22130;DHT22;11231;50.746;4.272;2023-07-08T12:14:02;44.20;46.40
22130;DHT22;11231;50.746;4.272;2023-07-08T12:16:30;43.30;47.40
22130;DHT22;11231;50.746;4.272;2023-07-08T12:18:59;43.00;48.00
22130;DHT22;11231;50.746;4.272;2023-07-08T12:21:27;41.80;47.70
22130;DHT22;11231;50.746;4.272;2023-07-08T12:23:53;40.80;48.40
22130;DHT22;11231;50.746;4.272;2023-07-08T12:26:21;40.80;49.20
22130;DHT22;11231;50.746;4.272;2023-07-08T12:28:47;40.00;49.60
22130;DHT22;11231;50.746;4.272;2023-07-08T12:31:20;39.70;50.20
22130;DHT22;11231;50.746;4.272;2023-07-08T12:33:47;39.50;51.40
22130;DHT22;11231;50.746;4.272;2023-07-08T12:36:19;39.60;51.60
22130;DHT22;11231;50.746;4.272;2023-07-08T12:38:46;39.50;51.20
22130;DHT22;11231;50.746;4.272;2023-07-08T12:41:20;38.90;51.60
22130;DHT22;11231;50.746;4.272;2023-07-08T12:43:47;38.70;52.10
22130;DHT22;11231;50.746;4.272;2023-07-08T12:46:14;38.90;53.00
22130;DHT22;11231;50.746;4.272;2023-07-08T12:48:40;39.00;52.20
22130;DHT22;11231;50.746;4.272;2023-07-08T12:51:12;38.70;54.20
22130;DHT22;11231;50.746;4.272;2023-07-08T12:53:38;37.50;55.40
22130;DHT22;11231;50.746;4.272;2023-07-08T12:56:04;35.60;58.30
22130;DHT22;11231;50.746;4.272;2023-07-08T12:58:34;34.10;62.20
22130;DHT22;11231;50.746;4.272;2023-07-08T13:01:04;33.20;64.30
22130;DHT22;11231;50.746;4.272;2023-07-08T13:03:37;32.70;66.30
22130;DHT22;11231;50.746;4.272;2023-07-08T13:06:03;33.00;67.00
22130;DHT22;11231;50.746;4.272;2023-07-08T13:08:34;33.00;66.30
22130;DHT22;11231;50.746;4.272;2023-07-08T13:11:02;32.70;65.00
22130;DHT22;11231;50.746;4.272;2023-07-08T13:13:47;32.30;63.80
22130;DHT22;11231;50.746;4.272;2023-07-08T13:16:14;31.70;63.60
22130;DHT22;11231;50.746;4.272;2023-07-08T13:18:41;31.70;63.70
22130;DHT22;11231;50.746;4.272;2023-07-08T13:21:11;32.00;63.70
22130;DHT22;11231;50.746;4.272;2023-07-08T13:23:38;32.10;63.40
22130;DHT22;11231;50.746;4.272;2023-07-08T13:26:15;32.40;63.50
22130;DHT22;11231;50.746;4.272;2023-07-08T13:28:41;32.40;63.50
22130;DHT22;11231;50.746;4.272;2023-07-08T13:33:46;32.40;64.10
22130;DHT22;11231;50.746;4.272;2023-07-08T13:36:13;32.50;63.50
22130;DHT22;11231;50.746;4.272;2023-07-08T13:38:40;32.00;65.00
22130;DHT22;11231;50.746;4.272;2023-07-08T13:41:07;32.20;64.50
22130;DHT22;11231;50.746;4.272;2023-07-08T13:43:37;32.50;65.50
22130;DHT22;11231;50.746;4.272;2023-07-08T13:46:04;32.80;64.20
22130;DHT22;11231;50.746;4.272;2023-07-08T13:48:41;33.10;65.00
22130;DHT22;11231;50.746;4.272;2023-07-08T13:51:15;33.00;64.30
22130;DHT22;11231;50.746;4.272;2023-07-08T13:53:53;33.10;66.20
22130;DHT22;11231;50.746;4.272;2023-07-08T13:56:23;33.10;66.90
22130;DHT22;11231;50.746;4.272;2023-07-08T13:58:53;33.30;68.00
22130;DHT22;11231;50.746;4.272;2023-07-08T14:01:22;33.70;66.60
22130;DHT22;11231;50.746;4.272;2023-07-08T14:03:49;33.80;66.00
22130;DHT22;11231;50.746;4.272;2023-07-08T14:06:17;34.00;66.40
22130;DHT22;11231;50.746;4.272;2023-07-08T14:08:43;33.80;66.20
22130;DHT22;11231;50.746;4.272;2023-07-08T14:11:09;33.80;67.60
22130;DHT22;11231;50.746;4.272;2023-07-08T14:13:35;33.90;67.30
22130;DHT22;11231;50.746;4.272;2023-07-08T14:16:01;33.80;65.60
22130;DHT22;11231;50.746;4.272;2023-07-08T14:18:28;34.00;67.20
22130;DHT22;11231;50.746;4.272;2023-07-08T14:20:53;34.10;67.40
22130;DHT22;11231;50.746;4.272;2023-07-08T14:23:19;34.10;67.80
22130;DHT22;11231;50.746;4.272;2023-07-08T14:25:46;34.20;67.80
22130;DHT22;11231;50.746;4.272;2023-07-08T14:28:11;34.20;69.30
22130;DHT22;11231;50.746;4.272;2023-07-08T14:30:43;34.00;68.80
22130;DHT22;11231;50.746;4.272;2023-07-08T14:33:13;33.90;69.30
22130;DHT22;11231;50.746;4.272;2023-07-08T14:35:39;34.00;70.00
22130;DHT22;11231;50.746;4.272;2023-07-08T14:38:10;34.10;70.40
22130;DHT22;11231;50.746;4.272;2023-07-08T14:40:38;34.20;68.20
22130;DHT22;11231;50.746;4.272;2023-07-08T14:45:48;33.90;69.70
22130;DHT22;11231;50.746;4.272;2023-07-08T14:48:14;34.00;70.30
22130;DHT22;11231;50.746;4.272;2023-07-08T14:50:40;34.10;70.70
22130;DHT22;11231;50.746;4.272;2023-07-08T14:53:06;34.10;71.60
22130;DHT22;11231;50.746;4.272;2023-07-08T14:55:32;34.10;72.10
22130;DHT22;11231;50.746;4.272;2023-07-08T14:57:59;34.00;70.50
22130;DHT22;11231;50.746;4.272;2023-07-08T15:00:25;33.90;72.40
22130;DHT22;11231;50.746;4.272;2023-07-08T15:02:52;33.90;71.00
22130;DHT22;11231;50.746;4.272;2023-07-08T15:05:26;33.80;71.60
22130;DHT22;11231;50.746;4.272;2023-07-08T15:07:57;34.00;72.10
22130;DHT22;11231;50.746;4.272;2023-07-08T15:10:25;34.20;74.10
22130;DHT22;11231;50.746;4.272;2023-07-08T15:12:52;34.30;71.40
22130;DHT22;11231;50.746;4.272;2023-07-08T15:15:27;34.40;73.60
22130;DHT22;11231;50.746;4.272;2023-07-08T15:17:53;34.70;74.20
22130;DHT22;11231;50.746;4.272;2023-07-08T15:20:18;34.80;73.50
22130;DHT22;11231;50.746;4.272;2023-07-08T15:22:44;34.80;72.80
22130;DHT22;11231;50.746;4.272;2023-07-08T15:25:13;35.00;72.40
22130;DHT22;11231;50.746;4.272;2023-07-08T15:27:42;35.00;70.80
22130;DHT22;11231;50.746;4.272;2023-07-08T15:30:20;35.00;69.10
22130;DHT22;11231;50.746;4.272;2023-07-08T15:32:47;35.10;69.30
22130;DHT22;11231;50.746;4.272;2023-07-08T15:35:27;35.10;67.90
22130;DHT22;11231;50.746;4.272;2023-07-08T15:37:58;35.10;68.40
22130;DHT22;11231;50.746;4.272;2023-07-08T15:40:25;35.20;69.10
22130;DHT22;11231;50.746;4.272;2023-07-08T15:42:54;35.20;69.70
22130;DHT22;11231;50.746;4.272;2023-07-08T15:45:26;35.40;71.00
22130;DHT22;11231;50.746;4.272;2023-07-08T15:47:53;35.50;69.40
22130;DHT22;11231;50.746;4.272;2023-07-08T15:50:24;35.20;67.60
22130;DHT22;11231;50.746;4.272;2023-07-08T15:52:50;35.20;70.20
22130;DHT22;11231;50.746;4.272;2023-07-08T15:55:28;35.30;70.50
22130;DHT22;11231;50.746;4.272;2023-07-08T15:57:58;35.10;69.30
22130;DHT22;11231;50.746;4.272;2023-07-08T16:00:27;35.10;70.10
22130;DHT22;11231;50.746;4.272;2023-07-08T16:02:56;35.10;69.00
22130;DHT22;11231;50.746;4.272;2023-07-08T16:05:23;35.00;69.40
22130;DHT22;11231;50.746;4.272;2023-07-08T16:07:51;35.00;68.50
22130;DHT22;11231;50.746;4.272;2023-07-08T16:10:18;34.90;70.30
22130;DHT22;11231;50.746;4.272;2023-07-08T16:12:45;34.90;69.60
22130;DHT22;11231;50.746;4.272;2023-07-08T16:15:33;34.60;68.00
22130;DHT22;11231;50.746;4.272;2023-07-08T16:18:01;34.30;68.30
22130;DHT22;11231;50.746;4.272;2023-07-08T16:20:28;34.50;69.40
22130;DHT22;11231;50.746;4.272;2023-07-08T16:22:54;34.50;67.60
22130;DHT22;11231;50.746;4.272;2023-07-08T16:25:28;34.60;65.90
22130;DHT22;11231;50.746;4.272;2023-07-08T16:27:55;34.60;66.60
22130;DHT22;11231;50.746;4.272;2023-07-08T16:30:22;34.70;66.70
22130;DHT22;11231;50.746;4.272;2023-07-08T16:32:48;34.70;64.80
22130;DHT22;11231;50.746;4.272;2023-07-08T16:35:17;34.60;64.50
22130;DHT22;11231;50.746;4.272;2023-07-08T16:37:47;34.60;65.60
22130;DHT22;11231;50.746;4.272;2023-07-08T16:40:21;34.60;66.50
22130;DHT22;11231;50.746;4.272;2023-07-08T16:42:48;34.60;66.40
22130;DHT22;11231;50.746;4.272;2023-07-08T16:45:17;34.60;66.70
22130;DHT22;11231;50.746;4.272;2023-07-08T16:47:44;34.70;67.30
22130;DHT22;11231;50.746;4.272;2023-07-08T16:50:11;34.70;68.00
22130;DHT22;11231;50.746;4.272;2023-07-08T16:52:37;34.60;65.60
22130;DHT22;11231;50.746;4.272;2023-07-08T16:55:18;34.50;66.40
22130;DHT22;11231;50.746;4.272;2023-07-08T16:57:45;34.50;67.70
22130;DHT22;11231;50.746;4.272;2023-07-08T17:00:19;34.50;66.20
22130;DHT22;11231;50.746;4.272;2023-07-08T17:02:47;34.40;65.90
22130;DHT22;11231;50.746;4.272;2023-07-08T17:05:24;34.20;68.00